createdAt,value
2022-11-05T00:02:34.608Z,54.42
2022-11-05T00:05:16.729Z,45.75
2022-11-05T00:08:03.187Z,54.25
2022-11-05T00:10:33.967Z,47.80
2022-11-05T00:13:16.229Z,61.13
2022-11-05T00:15:58.256Z,66.68
2022-11-05T00:18:30.631Z,57.13
2022-11-05T00:21:00.579Z,55.60
2022-11-05T00:23:42.872Z,60.03
2022-11-05T00:26:14.319Z,60.22
2022-11-05T00:28:44.764Z,59.38
2022-11-05T00:31:16.109Z,55.90
2022-11-05T00:33:48.243Z,57.53
2022-11-05T00:36:17.798Z,60.60
2022-11-05T00:38:47.418Z,63.08
2022-11-05T00:41:18.154Z,65.30
2022-11-05T00:44:00.178Z,57.53
2022-11-05T00:46:29.703Z,54.75
2022-11-05T00:49:14.574Z,48.20
2022-11-05T00:51:44.110Z,67.28
2022-11-05T00:54:13.656Z,65.75
2022-11-05T00:56:43.275Z,60.45
2022-11-05T00:59:12.874Z,55.95
2022-11-05T01:01:42.515Z,53.53
2022-11-05T01:04:15.205Z,61.58
2022-11-05T01:06:44.749Z,56.22
2022-11-05T01:09:14.338Z,60.85
2022-11-05T01:11:46.057Z,73.20
2022-11-05T01:14:17.349Z,66.22
2022-11-05T01:16:47.826Z,65.57
2022-11-05T01:19:20.058Z,73.20
2022-11-05T01:21:49.935Z,80.45
2022-11-05T01:24:19.555Z,79.97
2022-11-05T01:26:49.172Z,84.82
2022-11-05T01:29:18.749Z,67.15
2022-11-05T01:31:48.483Z,67.28
2022-11-05T01:34:20.889Z,67.60
2022-11-05T01:36:50.517Z,67.57
2022-11-05T01:39:20.114Z,72.65
2022-11-05T01:41:49.672Z,69.45
2022-11-05T01:44:49.850Z,68.55
2022-11-05T01:47:26.885Z,72.57
2022-11-05T01:50:02.118Z,67.88
2022-11-05T01:52:32.995Z,59.05
2022-11-05T01:55:02.973Z,65.93
2022-11-05T01:57:32.642Z,58.60
2022-11-05T02:00:02.851Z,71.40
2022-11-05T02:02:42.795Z,81.30
2022-11-05T02:05:16.028Z,82.07
2022-11-05T02:07:47.060Z,78.95
2022-11-05T02:10:19.130Z,89.05
2022-11-05T02:12:50.320Z,97.50
2022-11-05T02:15:24.021Z,93.20
2022-11-05T02:18:01.453Z,92.82
2022-11-05T02:20:37.559Z,94.85
2022-11-05T02:23:39.609Z,86.65
2022-11-05T02:26:27.863Z,105.65
2022-11-05T02:29:27.513Z,99.05
2022-11-05T02:32:03.037Z,117.22
2022-11-05T02:34:38.569Z,117.85
2022-11-05T02:37:14.013Z,103.65
2022-11-05T02:39:50.085Z,102.88
2022-11-05T02:42:26.741Z,97.55
2022-11-05T02:45:00.076Z,100.07
2022-11-05T02:47:38.218Z,100.32
2022-11-05T02:50:19.329Z,99.75
2022-11-05T02:52:56.651Z,97.75
2022-11-05T02:55:30.363Z,91.35
2022-11-05T02:58:00.389Z,89.85
2022-11-05T03:00:44.000Z,90.75
2022-11-05T03:03:20.591Z,98.00
2022-11-05T03:06:02.099Z,77.82
2022-11-05T03:08:42.435Z,77.93
2022-11-05T03:11:16.072Z,88.80
2022-11-05T03:13:52.883Z,82.10
2022-11-05T03:16:25.011Z,77.13
2022-11-05T03:19:02.295Z,81.78
2022-11-05T03:21:38.833Z,82.43
2022-11-05T03:24:13.404Z,82.03
2022-11-05T03:26:47.177Z,79.30
2022-11-05T03:29:20.925Z,76.93
2022-11-05T03:31:51.681Z,83.68
2022-11-05T03:34:29.623Z,76.03
2022-11-05T03:37:00.181Z,83.80
2022-11-05T03:39:33.431Z,73.63
2022-11-05T03:42:04.731Z,74.40
2022-11-05T03:44:36.971Z,70.70
2022-11-05T03:47:09.295Z,65.28
2022-11-05T03:49:43.647Z,61.53
2022-11-05T03:52:15.917Z,62.17
2022-11-05T03:54:45.501Z,57.08
2022-11-05T03:57:19.022Z,51.50
2022-11-05T03:59:49.910Z,57.20
2022-11-05T04:02:22.036Z,57.08
2022-11-05T04:04:54.378Z,61.13
2022-11-05T04:07:36.382Z,57.30
2022-11-05T04:10:18.652Z,55.92
2022-11-05T04:13:00.729Z,60.35
2022-11-05T04:15:30.896Z,50.65
2022-11-05T04:17:59.103Z,51.10
2022-11-05T04:20:45.818Z,55.70
2022-11-05T04:23:27.874Z,48.35
2022-11-05T04:25:57.447Z,36.88
2022-11-05T04:28:47.035Z,43.65
2022-11-05T04:31:13.937Z,42.35
2022-11-05T04:33:43.547Z,39.35
2022-11-05T04:36:15.670Z,44.72
2022-11-05T04:38:45.208Z,36.03
2022-11-05T04:41:15.969Z,34.17
2022-11-05T04:43:46.041Z,36.90
2022-11-05T04:46:15.569Z,39.53
2022-11-05T04:48:45.247Z,39.72
2022-11-05T04:51:17.391Z,37.65
2022-11-05T04:53:46.951Z,33.63
2022-11-05T04:56:20.554Z,35.13
2022-11-05T04:58:50.214Z,39.85
2022-11-05T05:01:21.604Z,37.33
2022-11-05T05:03:51.879Z,41.53
2022-11-05T05:06:24.598Z,35.53
2022-11-05T05:08:54.442Z,47.70
2022-11-05T05:11:24.852Z,44.15
2022-11-05T05:13:54.423Z,45.17
2022-11-05T05:16:25.219Z,52.50
2022-11-05T05:18:55.483Z,51.50
2022-11-05T05:21:40.501Z,60.15
2022-11-05T05:24:12.203Z,63.30
2022-11-05T05:26:43.833Z,68.00
2022-11-05T05:29:14.326Z,59.35
2022-11-05T05:31:44.177Z,61.83
2022-11-05T05:34:15.413Z,62.80
2022-11-05T05:36:47.555Z,67.60
2022-11-05T05:39:17.217Z,60.45
2022-11-05T05:41:46.750Z,69.35
2022-11-05T05:44:16.299Z,69.43
2022-11-05T05:46:45.850Z,72.72
2022-11-05T05:49:15.510Z,72.68
2022-11-05T05:51:47.663Z,75.85
2022-11-05T05:54:17.327Z,76.25
2022-11-05T05:56:47.103Z,70.45
2022-11-05T05:59:16.657Z,76.03
2022-11-05T06:01:46.327Z,76.10
2022-11-05T06:04:15.997Z,75.30
2022-11-05T06:06:48.525Z,77.40
2022-11-05T06:09:18.565Z,88.22
2022-11-05T06:11:48.089Z,91.10
2022-11-05T06:14:17.645Z,86.85
2022-11-05T06:16:47.174Z,92.18
2022-11-05T06:19:16.682Z,89.43
2022-11-05T06:21:48.792Z,99.97
2022-11-05T06:24:18.546Z,90.97
2022-11-05T06:26:48.078Z,95.65
2022-11-05T06:29:17.656Z,93.55
2022-11-05T06:31:47.181Z,92.00
2022-11-05T06:34:16.704Z,103.55
2022-11-05T06:36:49.051Z,101.97
2022-11-05T06:39:18.566Z,92.93
2022-11-05T06:42:16.561Z,104.90
2022-11-05T06:44:37.616Z,92.53
2022-11-05T06:47:07.339Z,99.75
2022-11-05T06:49:36.883Z,91.97
2022-11-05T06:52:09.029Z,92.25
2022-11-05T06:54:38.550Z,88.25
2022-11-05T06:57:09.621Z,94.22
2022-11-05T06:59:39.277Z,93.40
2022-11-05T07:02:09.408Z,100.57
2022-11-05T07:04:39.021Z,107.78
2022-11-05T07:07:11.191Z,109.32
2022-11-05T07:09:43.154Z,109.35
2022-11-05T07:12:12.734Z,103.03
2022-11-05T07:14:42.479Z,96.72
2022-11-05T07:17:12.075Z,113.53
2022-11-05T07:19:41.631Z,102.15
2022-11-05T07:22:13.979Z,103.82
2022-11-05T07:24:43.751Z,101.93
2022-11-05T07:27:13.513Z,104.93
2022-11-05T07:29:43.056Z,100.70
2022-11-05T07:32:13.249Z,102.70
2022-11-05T07:34:42.819Z,111.68
2022-11-05T07:37:16.654Z,100.32
2022-11-05T07:39:46.228Z,88.50
2022-11-05T07:42:16.159Z,85.55
2022-11-05T07:44:45.663Z,96.75
2022-11-05T07:47:15.183Z,87.95
2022-11-05T07:49:44.734Z,85.35
2022-11-05T07:52:17.266Z,75.43
2022-11-05T07:54:46.831Z,68.78
2022-11-05T07:57:16.399Z,60.17
2022-11-05T07:59:45.923Z,56.25
2022-11-05T08:02:15.872Z,51.05
2022-11-05T08:04:45.477Z,48.83
2022-11-05T08:07:17.668Z,38.30
2022-11-05T08:09:47.197Z,36.45
2022-11-05T08:12:16.762Z,33.78
2022-11-05T08:14:46.846Z,33.92
2022-11-05T08:17:18.525Z,31.55
2022-11-05T08:19:48.207Z,26.85
2022-11-05T08:22:20.446Z,29.00
2022-11-05T08:24:50.119Z,26.83
2022-11-05T08:27:19.731Z,29.95
2022-11-05T08:29:49.275Z,25.15
2022-11-05T08:32:18.866Z,27.52
2022-11-05T08:34:48.396Z,26.00
2022-11-05T08:37:20.522Z,20.88
2022-11-05T08:39:51.110Z,22.30
2022-11-05T08:42:20.662Z,22.55
2022-11-05T08:44:50.239Z,21.70
2022-11-05T08:47:19.751Z,23.33
2022-11-05T08:49:49.280Z,20.05
2022-11-05T08:52:21.447Z,19.70
2022-11-05T08:54:51.002Z,19.38
2022-11-05T08:57:20.537Z,18.10
2022-11-05T08:59:50.099Z,20.75
2022-11-05T09:02:19.797Z,17.52
2022-11-05T09:04:49.364Z,16.85
2022-11-05T09:07:22.907Z,19.40
2022-11-05T09:09:52.471Z,18.42
2022-11-05T09:12:21.983Z,17.02
2022-11-05T09:14:51.529Z,15.32
2022-11-05T09:17:22.628Z,12.65
2022-11-05T09:19:52.396Z,14.80
2022-11-05T09:22:24.519Z,14.38
2022-11-05T09:24:54.071Z,14.13
2022-11-05T09:27:23.595Z,12.73
2022-11-05T09:29:53.105Z,16.00
2022-11-05T09:32:23.274Z,15.25
2022-11-05T09:34:53.137Z,14.73
2022-11-05T09:37:25.257Z,13.52
2022-11-05T09:39:55.514Z,15.48
2022-11-05T09:42:28.378Z,18.85
2022-11-05T09:45:00.906Z,14.25
2022-11-05T09:47:33.576Z,13.57
2022-11-05T09:50:05.913Z,15.30
2022-11-05T09:52:38.073Z,14.98
2022-11-05T09:55:19.924Z,17.05
2022-11-05T09:57:52.690Z,17.95
2022-11-05T10:00:22.365Z,18.75
2022-11-05T10:02:55.636Z,16.02
2022-11-05T10:05:26.538Z,17.00
2022-11-05T10:08:02.294Z,22.08
2022-11-05T10:10:41.037Z,17.73
2022-11-05T10:13:19.025Z,18.08
2022-11-05T10:15:57.421Z,17.60
2022-11-05T10:18:29.975Z,21.90
2022-11-05T10:20:59.699Z,18.55
2022-11-05T10:23:32.152Z,19.10
2022-11-05T10:26:05.119Z,18.70
2022-11-05T10:28:36.352Z,17.23
2022-11-05T10:31:07.924Z,18.10
2022-11-05T10:33:41.137Z,16.67
2022-11-05T10:36:13.938Z,18.07
2022-11-05T10:38:46.204Z,20.65
2022-11-05T10:41:34.695Z,18.42
2022-11-05T10:44:18.806Z,19.33
2022-11-05T10:49:29.042Z,19.05
2022-11-05T10:52:00.452Z,18.23
2022-11-05T10:54:36.613Z,17.58
2022-11-05T10:57:34.830Z,20.63
2022-11-05T11:00:23.412Z,18.45
2022-11-05T11:02:54.803Z,19.35
2022-11-05T11:05:28.157Z,15.65
2022-11-05T11:08:02.553Z,16.60
2022-11-05T11:10:34.307Z,14.15
2022-11-05T11:13:06.664Z,14.32
2022-11-05T11:15:37.263Z,19.50
2022-11-05T11:18:29.243Z,17.90
2022-11-05T11:21:08.626Z,14.48
2022-11-05T11:23:40.698Z,14.52
2022-11-05T11:26:10.989Z,12.05
2022-11-05T11:28:47.132Z,13.43
2022-11-05T11:31:18.956Z,14.25
2022-11-05T11:33:50.015Z,13.20
2022-11-05T11:36:21.427Z,8.80
2022-11-05T11:38:51.112Z,10.85
2022-11-05T11:41:27.702Z,12.50
2022-11-05T11:44:06.125Z,11.95
2022-11-05T11:46:36.802Z,9.07
2022-11-05T11:49:07.571Z,14.98
2022-11-05T11:51:40.817Z,8.80
2022-11-05T11:54:28.878Z,12.65
2022-11-05T11:56:58.767Z,10.27
2022-11-05T12:00:01.959Z,10.13
2022-11-05T12:02:41.845Z,6.15
2022-11-05T12:05:24.548Z,9.13
2022-11-05T12:07:58.183Z,10.25
2022-11-05T12:10:47.387Z,12.45
2022-11-05T12:13:46.858Z,11.20
2022-11-05T12:16:25.575Z,10.70
2022-11-05T12:19:00.196Z,10.82
2022-11-05T12:21:52.539Z,7.25
2022-11-05T12:24:58.132Z,9.15
2022-11-05T12:27:40.656Z,9.52
2022-11-05T12:30:15.471Z,11.18
2022-11-05T12:33:07.087Z,8.05
2022-11-05T12:35:48.222Z,9.93
2022-11-05T12:38:28.842Z,7.72
2022-11-05T12:41:07.231Z,8.07
2022-11-05T12:43:46.751Z,10.98
2022-11-05T12:46:26.935Z,14.73
2022-11-05T12:49:11.195Z,6.82
2022-11-05T12:51:50.477Z,6.78
2022-11-05T12:54:26.804Z,9.18
2022-11-05T12:56:59.419Z,8.98
2022-11-05T12:59:37.663Z,11.10
2022-11-05T13:02:16.313Z,8.88
2022-11-05T13:04:53.896Z,23.83
2022-11-05T13:07:29.348Z,8.65
2022-11-05T13:10:03.858Z,5.72
2022-11-05T13:12:36.242Z,8.73
2022-11-05T13:15:09.632Z,9.40
2022-11-05T13:17:46.418Z,6.10
2022-11-05T13:20:22.307Z,13.63
2022-11-05T13:22:55.740Z,10.27
2022-11-05T13:25:28.158Z,7.57
2022-11-05T13:28:02.506Z,10.02
2022-11-05T13:30:35.774Z,9.20
2022-11-05T13:33:09.111Z,10.52
2022-11-05T13:35:45.180Z,11.35
2022-11-05T13:38:33.426Z,10.48
2022-11-05T13:41:15.500Z,9.00
2022-11-05T13:43:56.931Z,9.65
2022-11-05T13:46:34.977Z,8.38
2022-11-05T13:49:29.592Z,8.93
2022-11-05T13:52:11.851Z,7.97
2022-11-05T13:55:07.155Z,6.05
2022-11-05T13:58:03.124Z,7.40
2022-11-05T14:00:35.940Z,4.35
2022-11-05T14:03:08.149Z,7.80
2022-11-05T14:05:41.179Z,5.63
2022-11-05T14:08:18.391Z,6.00
2022-11-05T14:10:49.820Z,9.82
2022-11-05T14:13:23.862Z,5.97
2022-11-05T14:18:44.548Z,8.88
2022-11-05T14:21:33.751Z,6.53
2022-11-05T14:24:29.196Z,8.05
2022-11-05T14:27:28.858Z,5.07
2022-11-05T14:29:58.693Z,5.35
2022-11-05T14:32:30.602Z,5.60
2022-11-05T14:35:04.496Z,6.10
2022-11-05T14:37:37.117Z,4.47
2022-11-05T14:40:29.041Z,5.32
2022-11-05T14:43:00.093Z,5.40
2022-11-05T14:45:32.876Z,4.80
2022-11-05T14:48:04.325Z,4.90
2022-11-05T14:50:38.109Z,4.97
2022-11-05T14:53:14.227Z,5.05
2022-11-05T14:55:47.023Z,6.88
2022-11-05T14:58:35.397Z,6.38
2022-11-05T15:01:07.746Z,4.70
2022-11-05T15:04:03.323Z,4.53
2022-11-05T15:06:35.692Z,4.88
2022-11-05T15:09:15.420Z,5.47
2022-11-05T15:11:52.855Z,4.05
2022-11-05T15:14:27.313Z,7.47
2022-11-05T15:16:58.567Z,4.35
2022-11-05T15:19:32.189Z,4.57
2022-11-05T15:22:04.465Z,4.47
2022-11-05T15:24:34.302Z,4.47
2022-11-05T15:27:10.660Z,5.85
2022-11-05T15:29:41.334Z,5.80
2022-11-05T15:32:17.771Z,3.22
2022-11-05T15:34:53.773Z,6.97
2022-11-05T15:37:25.465Z,4.65
2022-11-05T15:39:56.535Z,7.15
2022-11-05T15:42:29.895Z,7.28
2022-11-05T15:45:00.653Z,5.15
2022-11-05T15:47:31.103Z,23.42
2022-11-05T15:50:02.070Z,6.82
2022-11-05T15:52:36.569Z,9.82
2022-11-05T15:55:12.073Z,7.88
2022-11-05T15:57:50.372Z,8.88
2022-11-05T16:00:24.033Z,7.03
2022-11-05T16:02:56.321Z,7.68
2022-11-05T16:05:26.487Z,5.95
2022-11-05T16:07:56.093Z,9.00
2022-11-05T16:10:31.514Z,8.10
2022-11-05T16:13:24.235Z,6.65
2022-11-05T16:15:57.537Z,6.53
2022-11-05T16:18:28.542Z,7.60
2022-11-05T16:21:06.117Z,7.28
2022-11-05T16:23:47.557Z,5.63
2022-11-05T16:27:01.248Z,7.28
2022-11-05T16:29:28.891Z,5.68
2022-11-05T16:31:59.617Z,7.97
2022-11-05T16:34:30.711Z,7.40
2022-11-05T16:37:00.949Z,8.73
2022-11-05T16:39:30.514Z,8.68
2022-11-05T16:42:00.523Z,6.45
2022-11-05T16:44:33.065Z,10.85
2022-11-05T16:47:02.654Z,8.88
2022-11-05T16:49:32.211Z,8.02
2022-11-05T16:52:02.222Z,12.02
2022-11-05T16:54:31.775Z,7.97
2022-11-05T16:57:01.747Z,10.07
2022-11-05T16:59:34.137Z,7.70
2022-11-05T17:02:04.132Z,8.75
2022-11-05T17:04:33.872Z,9.32
2022-11-05T17:07:03.829Z,9.95
2022-11-05T17:09:33.997Z,9.15
2022-11-05T17:12:03.590Z,8.15
2022-11-05T17:14:35.707Z,8.73
2022-11-05T17:17:05.586Z,13.20
2022-11-05T17:19:35.562Z,8.57
2022-11-05T17:22:05.119Z,15.50
2022-11-05T17:24:34.999Z,13.68
2022-11-05T17:27:04.554Z,8.82
2022-11-05T17:29:36.728Z,9.68
2022-11-05T17:32:08.026Z,8.77
2022-11-05T17:34:37.715Z,8.90
2022-11-05T17:37:07.276Z,7.82
2022-11-05T17:39:36.795Z,7.82
2022-11-05T17:42:06.931Z,7.05
2022-11-05T17:44:39.470Z,8.70
2022-11-05T17:47:09.062Z,8.07
2022-11-05T17:49:38.665Z,6.97
2022-11-05T17:52:08.460Z,8.95
2022-11-05T17:54:38.041Z,9.90
2022-11-05T17:57:07.733Z,9.35
2022-11-05T17:59:39.874Z,11.70
2022-11-05T18:02:09.627Z,10.77
2022-11-05T18:04:39.546Z,7.63
2022-11-05T18:07:09.591Z,15.18
2022-11-05T18:09:39.231Z,11.75
2022-11-05T18:12:10.308Z,9.05
2022-11-05T18:14:42.472Z,7.78
2022-11-05T18:17:12.469Z,8.50
2022-11-05T18:19:41.996Z,9.32
2022-11-05T18:22:11.555Z,7.60
2022-11-05T18:24:41.256Z,7.75
2022-11-05T18:27:10.872Z,7.65
2022-11-05T18:29:43.059Z,10.25
2022-11-05T18:32:12.619Z,7.88
2022-11-05T18:34:42.280Z,9.70
2022-11-05T18:37:11.840Z,6.60
2022-11-05T18:39:41.413Z,8.88
2022-11-05T18:42:11.229Z,9.48
2022-11-05T18:44:43.370Z,8.27
2022-11-05T18:47:12.993Z,12.38
2022-11-05T18:49:42.695Z,11.13
2022-11-05T18:52:12.301Z,13.48
2022-11-05T18:54:41.822Z,12.95
2022-11-05T18:57:11.499Z,8.43
2022-11-05T18:59:46.765Z,13.93
2022-11-05T19:02:19.172Z,15.75
2022-11-05T19:05:14.025Z,12.77
2022-11-05T19:07:39.065Z,12.30
2022-11-05T19:10:10.422Z,9.73
2022-11-05T19:12:40.030Z,9.55
2022-11-05T19:15:13.336Z,11.50
2022-11-05T19:17:43.011Z,14.20
2022-11-05T19:20:13.572Z,14.27
2022-11-05T19:22:43.132Z,12.93
2022-11-05T19:25:12.687Z,12.85
2022-11-05T19:27:43.678Z,17.98
2022-11-05T19:30:16.283Z,13.77
2022-11-05T19:32:45.834Z,14.50
2022-11-05T19:35:15.407Z,20.85
2022-11-05T19:37:45.109Z,11.45
2022-11-05T19:40:15.137Z,15.50
2022-11-05T19:42:44.689Z,14.85
2022-11-05T19:45:42.877Z,13.13
2022-11-05T19:48:07.344Z,13.20
2022-11-05T19:50:42.615Z,16.50
2022-11-05T19:53:12.797Z,13.60
2022-11-05T19:55:44.993Z,14.60
2022-11-05T19:58:15.108Z,12.35
2022-11-05T20:00:47.317Z,12.75
2022-11-05T20:03:16.937Z,12.77
2022-11-05T20:05:46.524Z,13.77
2022-11-05T20:08:16.344Z,13.95
2022-11-05T20:10:46.274Z,16.60
2022-11-05T20:13:19.815Z,15.10
2022-11-05T20:15:52.658Z,13.05
2022-11-05T20:18:22.362Z,16.88
2022-11-05T20:20:52.008Z,12.70
2022-11-05T20:23:21.576Z,14.57
2022-11-05T20:25:51.135Z,16.13
2022-11-05T20:28:20.679Z,14.55
2022-11-05T20:30:52.951Z,14.65
2022-11-05T20:33:22.745Z,13.30
2022-11-05T20:35:52.320Z,14.48
2022-11-05T20:38:21.884Z,16.17
2022-11-05T20:40:52.453Z,15.63
2022-11-05T20:43:24.807Z,15.93
2022-11-05T20:46:02.256Z,14.35
2022-11-05T20:48:34.074Z,14.48
2022-11-05T20:51:07.871Z,16.05
2022-11-05T20:53:37.468Z,14.80
2022-11-05T20:56:09.394Z,15.10
2022-11-05T20:58:40.295Z,14.98
2022-11-05T21:01:15.674Z,15.07
2022-11-05T21:03:45.895Z,16.48
2022-11-05T21:06:16.236Z,16.52
2022-11-05T21:08:46.314Z,16.65
2022-11-05T21:11:15.867Z,15.90
2022-11-05T21:13:45.452Z,20.05
2022-11-05T21:16:19.004Z,18.52
2022-11-05T21:18:49.271Z,14.25
2022-11-05T21:21:20.694Z,17.20
2022-11-05T21:23:50.674Z,14.77
2022-11-05T21:26:20.362Z,16.70
2022-11-05T21:28:52.199Z,20.83
2022-11-05T21:31:24.382Z,15.65
2022-11-05T21:33:55.341Z,13.30
2022-11-05T21:36:25.131Z,13.57
2022-11-05T21:38:54.676Z,16.17
2022-11-05T21:41:24.281Z,19.52
2022-11-05T21:43:53.837Z,17.17
2022-11-05T21:46:26.043Z,13.00
2022-11-05T21:48:55.613Z,16.95
2022-11-05T21:51:37.975Z,15.45
2022-11-05T21:54:20.012Z,17.70
2022-11-05T21:57:02.925Z,16.65
2022-11-05T21:59:46.367Z,15.98
2022-11-05T22:02:19.983Z,17.92
2022-11-05T22:04:51.067Z,13.75
2022-11-05T22:07:22.516Z,18.50
2022-11-05T22:09:52.468Z,17.45
2022-11-05T22:12:22.215Z,14.65
2022-11-05T22:14:51.780Z,20.20
2022-11-05T22:17:24.295Z,19.52
2022-11-05T22:19:53.975Z,17.33
2022-11-05T22:22:23.867Z,15.68
2022-11-05T22:24:53.647Z,16.70
2022-11-05T22:27:24.238Z,15.88
2022-11-05T22:29:53.839Z,18.88
2022-11-05T22:32:26.008Z,19.13
2022-11-05T22:34:55.532Z,15.13
2022-11-05T22:37:25.447Z,14.20
2022-11-05T22:39:54.996Z,14.27
2022-11-05T22:42:24.683Z,16.23
2022-11-05T22:44:54.268Z,14.63
2022-11-05T22:47:26.474Z,13.48
2022-11-05T22:49:56.000Z,17.08
2022-11-05T22:52:25.608Z,16.23
2022-11-05T22:54:55.167Z,18.38
2022-11-05T22:57:24.754Z,15.48
2022-11-05T22:59:54.305Z,15.55
2022-11-05T23:02:26.586Z,19.77
2022-11-05T23:04:56.229Z,17.48
2022-11-05T23:07:38.260Z,20.25
2022-11-05T23:10:21.179Z,14.27
2022-11-05T23:12:50.758Z,24.60
2022-11-05T23:15:32.547Z,18.40
2022-11-05T23:18:17.213Z,17.17
2022-11-05T23:20:59.267Z,16.02
2022-11-05T23:23:41.353Z,16.27
2022-11-05T23:26:23.224Z,16.77
2022-11-05T23:28:52.794Z,21.95
2022-11-05T23:31:34.822Z,14.85
2022-11-05T23:34:07.150Z,14.70
2022-11-05T23:36:49.182Z,17.23
2022-11-05T23:39:18.833Z,15.10
2022-11-05T23:42:00.879Z,15.45
2022-11-05T23:44:42.907Z,16.27
2022-11-05T23:47:27.534Z,16.52
2022-11-05T23:49:59.908Z,12.07
2022-11-05T23:52:29.497Z,15.55
2022-11-05T23:54:59.079Z,14.98
2022-11-05T23:57:28.736Z,16.95
2022-11-05T23:59:58.311Z,17.25
